Terminal Aerodrome Forecast
Issued by NWS Bismarck, ND

Home | Current Version | Previous Version | Text Only | Print | Product List | Glossary Off
Versions: 1 2 3 4 5 6 7 8 9 10 11 12 13 14 15 16 17 18 19

000
FTUS43 KBIS 142330
TAFISN
TAF
KISN 142330Z 1500/1524 29008KT P6SM -SN SCT020 OVC060
     FM150200 32012KT 3SM -SN OVC016
      TEMPO 1503/1507 1SM -SN OVC008
     FM150700 35018KT 3SM -SN BLSN OVC015
     FM151000 36018KT 5SM BLSN BKN018 OVC030
     FM151400 35012KT P6SM SCT018 BKN100
     FM151800 32011KT P6SM SCT025=

USA.gov is the U.S. government's official web portal to all federal, state and local government web resources and services.